메인 페이지
METAR-TAF:

METAR-TAF

공항 :

코스라에 국제공항

코스라에 섬, 미크로네시아

위도: 05-21N, 경도: 162-57E, 고도: 3m

현재 날씨관측

예보는 17 시간 40분 전, 23:50시(UTC)에 발표되었습니다.
12kt
온도 29°C
습도 79%
기압 1009 hPa
시정: 16.1km
고도 1800ft 상공 구름 많음, 타워링 적운.
고도 18000ft 상공 구름 많음
고도 30000ft 상공 구름 많음
약한소나기

METAR: PTSA 162350Z 18012KT 10SM -SHRA BKN018TCU BKN180 BKN300 29/25 A2980 RMK TCU E-SW AND OHD LAST

시각: 04:30 (17:30 UTC)

예보

예보는 18 시간 10분 전, 23:20시(UTC)에 발표되었습니다.
예보 대상 시간: 17일 00시부터 17일 24시까지 (UTC)
8kt
시정: 10km
고도 2100ft 상공 구름 보통
고도 13000ft 상공 구름 보통
고도 30000ft 상공 흐림
시계 내 소나기
일시적
17일 00시부터 17일 03시까지 (UTC)
고도 2000ft 상공 구름 많음
고도 30000ft 상공 구름 많음
약한소나기

TAF: PTSA 162320Z 1700/1724 28008KT P6SM VCSH SCT021 SCT130 OVC300 TEMPO 1700/1703 -SHRA BKN020 BKN300

4,000개 이상의 공항 관측 자료 및 예보 (METAR 및 TAF 보고).

지도상에서 검색 가능한 기상관측소가 노란 점과 빨간 점으로 표시되어 있습니다.

기상관측소 명을 보려면 표시 위로 마우스를 이동하세요.

날씨 관측과 예보를 보려면 클릭하세요.

지도 변경 : 확대하려면 엑스 표시가 있는 녹색 버튼, 축소하려면 빼기 표시가 있는 녹색 버튼, 다음 페이지의 지도를 보려면 녹색 화살표를 클릭하세요.


METAR-TAF: